Time;durP1;ratioP1;P1;durP2;ratioP2;P2;SDS_P1;SDS_P2;PMS_P1;PMS_P2;Temp;Humidity;BMP_temperature;BMP_pressure;BME280_temperature;BME280_humidity;BME280_pressure;Samples;Min_cycle;Max_cycle;Signal;HPM_P1;HPM_P2
2023/08/12 00:00:50;;;;;;;77.63;74.00;;;;;;;15.10;100.00;93649.28;5067685;28;20101;-78
2023/08/12 00:03:17;;;;;;;87.47;83.50;;;;;;;15.09;100.00;93647.72;5068579;28;20047;-77
2023/08/12 00:05:46;;;;;;;102.13;97.63;;;;;;;15.09;100.00;93646.97;5062199;28;20494;-78
2023/08/12 00:08:13;;;;;;;80.95;77.43;;;;;;;15.02;100.00;93647.06;5066607;28;20052;-78
2023/08/12 00:10:39;;;;;;;68.57;65.40;;;;;;;14.99;100.00;93651.91;5064980;28;20041;-77
2023/08/12 00:13:06;;;;;;;102.80;97.90;;;;;;;14.93;100.00;93646.63;5065317;28;20582;-78
2023/08/12 00:15:34;;;;;;;66.10;63.08;;;;;;;14.89;100.00;93649.88;5067636;28;20074;-77
2023/08/12 00:18:04;;;;;;;124.63;118.97;;;;;;;14.86;100.00;93645.16;5063301;28;20044;-78
2023/08/12 00:20:30;;;;;;;100.10;95.55;;;;;;;14.79;100.00;93640.88;5067049;28;20078;-78
2023/08/12 00:22:57;;;;;;;44.25;42.13;;;;;;;14.67;100.00;93625.34;5063241;28;20094;-78
2023/08/12 00:25:24;;;;;;;63.92;61.00;;;;;;;14.50;100.00;93601.97;5065075;28;20072;-77
2023/08/12 00:27:51;;;;;;;57.75;54.90;;;;;;;14.75;100.00;93641.53;5064212;28;20486;-79
2023/08/12 00:30:17;;;;;;;56.33;53.70;;;;;;;14.68;100.00;93631.31;5065459;28;20084;-78
2023/08/12 00:32:45;;;;;;;66.68;63.60;;;;;;;14.67;100.00;93642.63;5062350;28;20441;-78
2023/08/12 00:35:12;;;;;;;54.55;52.00;;;;;;;14.65;100.00;93645.47;5067324;28;20041;-78
2023/08/12 00:37:39;;;;;;;59.33;56.60;;;;;;;14.57;100.00;93638.81;5064754;28;20155;-78
2023/08/12 00:40:07;;;;;;;70.82;67.57;;;;;;;14.52;100.00;93636.13;5065679;28;20095;-78
2023/08/12 00:42:34;;;;;;;83.60;79.78;;;;;;;14.46;100.00;93638.81;5066362;28;20040;-78
2023/08/12 00:45:00;;;;;;;74.05;70.72;;;;;;;14.41;100.00;93634.31;5063215;28;20106;-77
2023/08/12 00:47:30;;;;;;;80.95;77.28;;;;;;;14.39;100.00;93636.31;5065828;28;20052;-78
2023/08/12 00:49:59;;;;;;;59.88;56.58;;;;;;;14.39;100.00;93641.47;5065811;28;20457;-78
2023/08/12 00:52:26;;;;;;;64.65;61.70;;;;;;;14.36;100.00;93644.53;5065048;28;20049;-78
2023/08/12 00:54:53;;;;;;;103.55;98.80;;;;;;;14.32;100.00;93633.84;5065219;28;20044;-78
2023/08/12 00:57:20;;;;;;;83.25;79.57;;;;;;;14.30;100.00;93639.22;5066629;28;20122;-77
2023/08/12 00:59:48;;;;;;;104.53;99.82;;;;;;;14.13;100.00;93620.22;5065905;28;20536;-78
2023/08/12 01:02:14;;;;;;;96.30;91.88;;;;;;;14.26;100.00;93634.75;5062711;28;20106;-78
2023/08/12 01:04:41;;;;;;;84.53;80.78;;;;;;;14.21;100.00;93626.84;5060500;28;20098;-78
2023/08/12 01:07:10;;;;;;;75.55;72.05;;;;;;;14.17;100.00;93626.53;5066632;28;20052;-78
2023/08/12 01:09:36;;;;;;;75.82;72.35;;;;;;;13.98;100.00;93603.31;5066452;28;20059;-77
2023/08/12 01:12:10;;;;;;;73.75;70.38;;;;;;;14.00;100.00;93610.84;5062279;28;20036;-77
2023/08/12 01:14:45;;;;;;;86.47;82.65;;;;;;;14.10;100.00;93626.59;5065118;28;20049;-77
2023/08/12 01:17:15;;;;;;;120.13;114.82;;;;;;;14.03;100.00;93621.53;5064443;28;20048;-78
2023/08/12 01:19:43;;;;;;;91.57;87.47;;;;;;;13.97;100.00;93614.66;5064829;28;20060;-78
2023/08/12 01:22:13;;;;;;;92.82;88.85;;;;;;;13.89;100.00;93613.19;5065743;28;20592;-78
2023/08/12 01:24:43;;;;;;;96.68;92.43;;;;;;;13.83;100.00;93611.47;5065401;28;20109;-77
2023/08/12 01:27:11;;;;;;;92.30;88.22;;;;;;;13.86;100.00;93621.38;5064169;28;20052;-78
2023/08/12 01:29:41;;;;;;;87.75;83.75;;;;;;;13.74;100.00;93598.09;5066691;28;20173;-79
2023/08/12 01:32:12;;;;;;;141.07;134.57;;;;;;;13.85;100.00;93619.78;5063864;28;20080;-79
2023/08/12 01:34:44;;;;;;;128.13;122.45;;;;;;;13.81;100.00;93613.50;5066342;28;20052;-79
2023/08/12 01:37:14;;;;;;;88.80;84.88;;;;;;;13.86;100.00;93625.75;5065333;28;20057;-80
2023/08/12 01:39:44;;;;;;;71.55;68.32;;;;;;;13.65;100.00;93580.56;5065153;28;20515;-80
2023/08/12 01:42:11;;;;;;;89.07;85.10;;;;;;;13.88;100.00;93619.34;5066968;28;20048;-79
2023/08/12 01:44:38;;;;;;;105.30;100.60;;;;;;;13.88;100.00;93614.19;5066271;28;20106;-78
2023/08/12 01:47:05;;;;;;;174.50;166.60;;;;;;;13.83;100.00;93615.84;5065498;28;20051;-79
2023/08/12 01:49:32;;;;;;;97.78;93.40;;;;;;;13.80;100.00;93616.28;5066030;28;20456;-79
2023/08/12 01:51:59;;;;;;;115.72;110.57;;;;;;;13.73;100.00;93618.97;5065970;28;20040;-78
2023/08/12 01:54:26;;;;;;;107.32;102.47;;;;;;;13.71;100.00;93619.16;5065860;28;20045;-78
2023/08/12 01:56:54;;;;;;;115.88;110.75;;;;;;;13.70;100.00;93616.81;5065651;28;20729;-78
2023/08/12 01:59:20;;;;;;;114.38;109.38;;;;;;;13.68;100.00;93624.78;5060929;28;20045;-79
2023/08/12 02:01:47;;;;;;;112.60;107.72;;;;;;;13.51;100.00;93598.00;5064100;28;20044;-78
2023/08/12 02:04:14;;;;;;;89.80;85.85;;;;;;;13.58;100.00;93619.34;5062630;28;20055;-78
2023/08/12 02:06:41;;;;;;;106.72;102.07;;;;;;;13.56;100.00;93624.72;5066149;28;20560;-79
2023/08/12 02:09:07;;;;;;;103.20;98.57;;;;;;;13.51;100.00;93622.00;5066375;28;20056;-79
2023/08/12 02:11:34;;;;;;;145.52;139.20;;;;;;;13.51;100.00;93616.84;5061055;28;20049;-79
2023/08/12 02:14:02;;;;;;;206.90;197.40;;;;;;;13.47;100.00;93608.75;5063501;28;20434;-80
2023/08/12 02:16:29;;;;;;;118.28;113.07;;;;;;;13.46;100.00;93620.09;5063290;28;20048;-80
2023/08/12 02:18:55;;;;;;;129.57;123.82;;;;;;;13.40;100.00;93610.59;5062390;28;20045;-79
2023/08/12 02:21:22;;;;;;;105.78;101.07;;;;;;;13.48;100.00;93617.28;5063471;28;20099;-78
2023/08/12 02:23:49;;;;;;;130.05;124.50;;;;;;;13.46;100.00;93612.34;5065910;28;20117;-79
2023/08/12 02:26:16;;;;;;;130.10;124.55;;;;;;;13.48;100.00;93620.66;5065631;28;20105;-79
2023/08/12 02:28:43;;;;;;;96.57;92.20;;;;;;;13.46;100.00;93619.25;5062893;28;20040;-80
2023/08/12 02:31:11;;;;;;;98.80;94.43;;;;;;;13.42;100.00;93615.56;5065555;28;20515;-80
2023/08/12 02:33:38;;;;;;;98.63;94.25;;;;;;;13.38;100.00;93619.56;5065087;28;20048;-81
2023/08/12 02:36:05;;;;;;;98.88;94.47;;;;;;;13.36;100.00;93614.63;5066255;28;21211;-80
2023/08/12 02:38:32;;;;;;;107.20;102.50;;;;;;;13.38;100.00;93612.59;5063999;28;20053;-80
2023/08/12 02:40:59;;;;;;;177.85;169.70;;;;;;;13.32;100.00;93618.63;5064732;28;20497;-80
2023/08/12 02:43:25;;;;;;;144.48;138.13;;;;;;;13.31;100.00;93624.78;5064467;28;20524;-79
2023/08/12 02:45:52;;;;;;;131.55;125.72;;;;;;;13.19;100.00;93617.78;5066630;28;20094;-79
2023/08/12 02:48:20;;;;;;;179.55;171.55;;;;;;;13.20;100.00;93624.50;5070094;28;20049;-78
2023/08/12 02:50:47;;;;;;;127.72;122.22;;;;;;;13.23;100.00;93626.66;5068017;28;20531;-79
2023/08/12 02:53:14;;;;;;;130.50;124.57;;;;;;;13.13;100.00;93634.13;5066473;28;20114;-79
2023/08/12 02:55:40;;;;;;;189.90;181.55;;;;;;;12.82;100.00;93592.78;5069361;28;20052;-79
2023/08/12 02:58:07;;;;;;;125.95;120.38;;;;;;;13.00;100.00;93627.28;5067368;28;20441;-79
2023/08/12 03:00:34;;;;;;;127.18;121.50;;;;;;;12.98;100.00;93631.09;5068763;28;20102;-79
2023/08/12 03:03:04;;;;;;;138.55;132.52;;;;;;;13.00;100.00;93634.25;5067475;28;20055;-80
2023/08/12 03:05:33;;;;;;;138.93;132.90;;;;;;;13.02;100.00;93630.47;5066660;28;20410;-78
2023/08/12 03:08:01;;;;;;;165.57;158.30;;;;;;;13.05;100.00;93634.41;5069044;28;20037;-78
2023/08/12 03:10:28;;;;;;;174.27;166.65;;;;;;;12.95;100.00;93624.56;5068818;28;20548;-78
2023/08/12 03:12:54;;;;;;;163.80;156.50;;;;;;;12.95;100.00;93634.88;5068683;28;20040;-79
2023/08/12 03:15:21;;;;;;;202.38;193.30;;;;;;;12.68;100.00;93599.84;5067987;28;20044;-79
2023/08/12 03:17:51;;;;;;;130.70;125.03;;;;;;;12.91;100.00;93636.34;5063719;28;20052;-79
2023/08/12 03:20:18;;;;;;;103.68;99.00;;;;;;;12.90;100.00;93637.31;5068460;28;20130;-79
2023/08/12 03:22:46;;;;;;;131.32;125.60;;;;;;;12.83;100.00;93629.66;5067922;28;20044;-78
2023/08/12 03:25:14;;;;;;;162.05;154.77;;;;;;;12.82;100.00;93638.38;5068140;28;20890;-79
2023/08/12 03:27:41;;;;;;;128.00;122.22;;;;;;;12.78;100.00;93630.28;5068051;28;20422;-80
2023/08/12 03:30:09;;;;;;;134.45;128.48;;;;;;;12.69;100.00;93624.59;5064287;28;20045;-79
2023/08/12 03:32:36;;;;;;;139.95;133.70;;;;;;;12.66;100.00;93619.09;5062832;28;20486;-79
2023/08/12 03:35:03;;;;;;;140.40;134.27;;;;;;;12.72;100.00;93631.13;5066365;28;20048;-79
2023/08/12 03:37:30;;;;;;;184.63;176.48;;;;;;;12.65;100.00;93630.41;5066836;28;20418;-80
2023/08/12 03:39:58;;;;;;;186.40;178.13;;;;;;;12.67;100.00;93636.94;5067361;28;20048;-80
2023/08/12 03:42:25;;;;;;;124.47;118.97;;;;;;;12.62;100.00;93633.41;5067067;28;20114;-82
2023/08/12 03:44:52;;;;;;;206.60;197.43;;;;;;;12.55;100.00;93623.94;5064706;28;20048;-81
2023/08/12 03:47:21;;;;;;;142.82;136.50;;;;;;;12.69;100.00;93639.31;5067403;28;20048;-81
2023/08/12 03:49:48;;;;;;;144.93;138.70;;;;;;;12.66;100.00;93640.50;5062778;28;20475;-79
2023/08/12 03:52:15;;;;;;;175.55;167.75;;;;;;;12.64;100.00;93636.56;5067772;28;20098;-80
2023/08/12 03:54:42;;;;;;;206.38;196.88;;;;;;;12.63;100.00;93640.16;5064525;28;20105;-80
2023/08/12 03:57:10;;;;;;;216.55;206.77;;;;;;;12.60;100.00;93631.06;5063413;28;20057;-80
2023/08/12 03:59:36;;;;;;;227.48;217.02;;;;;;;12.68;100.00;93642.84;5063904;28;20090;-81
2023/08/12 04:02:04;;;;;;;206.57;197.40;;;;;;;12.64;100.00;93634.75;5062752;28;20090;-80
2023/08/12 04:04:31;;;;;;;213.35;203.80;;;;;;;12.69;100.00;93634.16;5065425;28;20136;-79
2023/08/12 04:06:57;;;;;;;220.07;210.23;;;;;;;12.74;100.00;93636.88;5064050;28;20041;-80
2023/08/12 04:09:24;;;;;;;150.90;144.10;;;;;;;12.76;100.00;93634.06;5063099;28;20490;-80
2023/08/12 04:11:52;;;;;;;215.27;205.68;;;;;;;12.75;100.00;93620.41;5062885;28;20103;-80
2023/08/12 04:14:20;;;;;;;189.23;180.48;;;;;;;12.93;100.00;93639.47;5062879;28;20048;-79
2023/08/12 04:16:47;;;;;;;199.95;191.00;;;;;;;12.95;100.00;93640.84;5062012;28;20040;-80
2023/08/12 04:19:13;;;;;;;163.27;155.93;;;;;;;13.02;100.00;93634.81;5063926;28;20052;-80
2023/08/12 04:21:40;;;;;;;124.88;119.15;;;;;;;13.05;100.00;93639.56;5064003;28;20052;-79
2023/08/12 04:24:08;;;;;;;116.82;111.63;;;;;;;13.08;100.00;93629.59;5061590;28;20457;-80
2023/08/12 04:26:35;;;;;;;135.05;129.13;;;;;;;13.16;100.00;93638.06;5060873;28;20078;-78
2023/08/12 04:29:02;;;;;;;107.75;102.90;;;;;;;13.21;100.00;93640.78;5061401;28;20145;-77
2023/08/12 04:31:30;;;;;;;154.60;147.25;;;;;;;13.29;100.00;93632.75;5061333;28;20049;-78
2023/08/12 04:34:03;;;;;;;119.22;113.95;;;;;;;13.19;100.00;93615.19;5060770;28;20048;-78
2023/08/12 04:36:30;;;;;;;133.88;127.72;;;;;;;13.27;100.00;93614.13;5060665;28;20119;-79
2023/08/12 04:38:57;;;;;;;113.53;108.47;;;;;;;13.51;100.00;93632.31;5061134;28;20095;-76
2023/08/12 04:41:24;;;;;;;118.28;112.82;;;;;;;13.57;100.00;93633.25;5063793;28;20044;-78
2023/08/12 04:43:51;;;;;;;94.53;90.32;;;;;;;13.55;100.00;93627.50;5065708;28;20079;-78
2023/08/12 04:46:21;;;;;;;138.32;132.20;;;;;;;13.65;100.00;93638.13;5062698;28;20048;-78
2023/08/12 04:48:49;;;;;;;179.63;171.75;;;;;;;13.71;100.00;93639.06;5062190;28;20455;-77
2023/08/12 04:51:15;;;;;;;107.13;102.45;;;;;;;13.69;100.00;93630.72;5066672;28;20562;-78
2023/08/12 04:53:42;;;;;;;126.15;120.25;;;;;;;13.82;100.00;93637.50;5064062;28;20045;-78
2023/08/12 04:56:09;;;;;;;108.88;103.82;;;;;;;13.87;100.00;93625.53;5067423;28;20082;-79
2023/08/12 04:58:36;;;;;;;91.88;87.75;;;;;;;13.94;100.00;93635.78;5067147;28;20052;-78
2023/08/12 05:01:03;;;;;;;64.47;61.60;;;;;;;14.05;100.00;93636.00;5067337;28;20040;-78
2023/08/12 05:03:30;;;;;;;76.03;72.53;;;;;;;14.00;100.00;93616.81;5066986;28;20052;-80
2023/08/12 05:05:58;;;;;;;81.53;77.88;;;;;;;14.19;100.00;93637.41;5066761;28;20135;-78
2023/08/12 05:08:25;;;;;;;52.45;50.03;;;;;;;14.25;100.00;93636.53;5064067;28;20040;-78
2023/08/12 05:10:52;;;;;;;73.60;70.15;;;;;;;14.35;100.00;93645.53;5063299;28;20449;-78
2023/08/12 05:13:19;;;;;;;79.45;75.82;;;;;;;14.43;100.00;93642.63;5064806;28;20041;-78
2023/08/12 05:15:47;;;;;;;66.88;63.47;;;;;;;14.54;100.00;93643.66;5063070;28;20044;-79
2023/08/12 05:18:14;;;;;;;69.60;66.47;;;;;;;14.62;100.00;93638.16;5058681;28;20183;-79
2023/08/12 05:20:41;;;;;;;65.72;62.65;;;;;;;14.70;100.00;93642.19;5063094;28;20040;-78
2023/08/12 05:23:09;;;;;;;72.13;68.78;;;;;;;14.68;100.00;93618.38;5065223;28;20094;-77
2023/08/12 05:25:36;;;;;;;56.38;53.35;;;;;;;14.83;100.00;93631.66;5066129;28;20090;-78
2023/08/12 05:28:05;;;;;;;55.88;53.20;;;;;;;14.91;100.00;93637.50;5065943;28;20473;-79
2023/08/12 05:30:32;;;;;;;46.95;44.75;;;;;;;15.03;100.00;93643.47;5063651;28;20106;-79
2023/08/12 05:32:59;;;;;;;47.42;45.22;;;;;;;15.10;100.00;93638.94;5063180;28;20041;-79
2023/08/12 05:35:25;;;;;;;47.90;45.60;;;;;;;15.16;100.00;93645.03;5065303;28;20433;-80
2023/08/12 05:37:52;;;;;;;47.58;45.35;;;;;;;15.11;100.00;93634.56;5063939;28;20056;-79
2023/08/12 05:40:23;;;;;;;52.47;50.00;;;;;;;15.18;100.00;93635.22;5064958;28;20854;-80
2023/08/12 05:42:50;;;;;;;43.75;41.67;;;;;;;15.32;100.00;93643.53;5060847;28;20048;-79
2023/08/12 05:45:17;;;;;;;48.75;46.42;;;;;;;15.46;100.00;93649.25;5062373;28;20162;-78
2023/08/12 05:47:43;;;;;;;37.63;35.72;;;;;;;15.59;100.00;93647.41;5063151;28;20494;-79
2023/08/12 05:50:10;;;;;;;41.50;39.30;;;;;;;15.70;100.00;93651.00;5064152;28;20114;-79
2023/08/12 05:52:37;;;;;;;35.75;33.85;;;;;;;15.65;100.00;93643.13;5065928;28;20116;-78
2023/08/12 05:55:05;;;;;;;36.30;34.28;;;;;;;15.76;100.00;93650.06;5062493;28;20094;-78
2023/08/12 05:57:33;;;;;;;37.88;35.92;;;;;;;15.75;100.00;93646.69;5062333;28;20102;-80
2023/08/12 06:00:02;;;;;;;35.47;33.70;;;;;;;15.72;100.00;93646.34;5060068;28;20044;-79
2023/08/12 06:02:28;;;;;;;39.05;37.05;;;;;;;15.76;100.00;93650.06;5064049;28;20613;-79
2023/08/12 06:04:55;;;;;;;31.15;29.65;;;;;;;15.83;100.00;93634.41;5061751;28;20045;-78
2023/08/12 06:07:23;;;;;;;36.50;34.70;;;;;;;15.96;100.00;93638.53;5062455;28;20497;-79
2023/08/12 06:09:49;;;;;;;32.33;30.52;;;;;;;15.77;100.00;93613.56;5061686;28;20094;-78
2023/08/12 06:12:16;;;;;;;34.95;33.15;;;;;;;16.17;100.00;93632.66;5060692;28;20045;-79
2023/08/12 06:14:44;;;;;;;34.13;32.45;;;;;;;16.39;100.00;93637.16;5060772;28;20597;-79
2023/08/12 06:17:11;;;;;;;29.27;27.77;;;;;;;16.62;100.00;93637.25;5065006;28;20106;-79
2023/08/12 06:19:38;;;;;;;24.63;23.23;;;;;;;16.89;100.00;93634.78;5062793;28;20468;-79
2023/08/12 06:22:05;;;;;;;19.20;18.08;;;;;;;17.12;100.00;93638.22;5067080;28;20056;-79
2023/08/12 06:24:31;;;;;;;20.83;19.73;;;;;;;17.39;100.00;93641.97;5067030;28;20552;-78
2023/08/12 06:26:58;;;;;;;22.77;21.48;;;;;;;17.59;100.00;93625.81;5067964;28;20045;-79
2023/08/12 06:29:25;;;;;;;14.63;13.70;;;;;;;17.83;100.00;93634.13;5069601;28;20048;-78
2023/08/12 06:31:53;;;;;;;14.50;13.60;;;;;;;18.08;100.00;93634.63;5067601;28;20049;-78
2023/08/12 06:34:20;;;;;;;10.27;9.57;;;;;;;18.24;97.12;93617.38;5069534;28;20056;-79
2023/08/12 06:36:48;;;;;;;7.85;7.28;;;;;;;18.60;95.63;93622.09;5068450;28;20041;-78
2023/08/12 06:39:14;;;;;;;8.73;8.13;;;;;;;18.60;90.37;93627.28;5069429;28;20109;-78
2023/08/12 06:41:41;;;;;;;7.20;6.80;;;;;;;18.66;90.60;93628.88;5063653;28;20052;-79
2023/08/12 06:44:10;;;;;;;8.15;7.65;;;;;;;18.69;91.17;93623.97;5065285;28;20102;-78
2023/08/12 06:46:37;;;;;;;7.53;6.97;;;;;;;18.91;89.48;93625.66;5069316;28;20042;-78
2023/08/12 06:49:05;;;;;;;6.93;6.43;;;;;;;19.05;88.84;93631.25;5064966;28;20086;-78
2023/08/12 06:51:32;;;;;;;5.50;5.00;;;;;;;19.31;89.38;93627.97;5065773;28;20044;-79
2023/08/12 06:53:59;;;;;;;7.28;6.78;;;;;;;19.48;87.82;93619.97;5065730;28;20097;-79
2023/08/12 06:56:26;;;;;;;5.55;5.15;;;;;;;19.79;89.36;93619.28;5063989;28;20048;-78
2023/08/12 06:58:52;;;;;;;5.50;5.10;;;;;;;19.94;84.99;93619.31;5063998;28;20087;-78
2023/08/12 07:01:19;;;;;;;5.45;4.93;;;;;;;20.18;84.39;93616.25;5063356;28;20647;-78
2023/08/12 07:03:46;;;;;;;4.97;4.47;;;;;;;20.42;85.88;93615.75;5066521;28;20056;-77
2023/08/12 07:06:14;;;;;;;4.25;3.85;;;;;;;20.65;84.20;93613.66;5068454;28;20041;-78
2023/08/12 07:08:41;;;;;;;4.07;3.65;;;;;;;20.70;83.99;93614.41;5068780;28;20040;-78
2023/08/12 07:11:07;;;;;;;4.18;3.88;;;;;;;20.99;80.67;93614.91;5068929;28;20045;-78
2023/08/12 07:13:34;;;;;;;4.10;3.78;;;;;;;21.32;81.84;93617.97;5060700;28;20052;-78
2023/08/12 07:16:01;;;;;;;3.70;3.40;;;;;;;21.62;80.97;93611.81;5068084;28;20044;-79
2023/08/12 07:18:28;;;;;;;3.60;3.30;;;;;;;21.94;80.32;93615.06;5069480;28;20056;-79
2023/08/12 07:20:55;;;;;;;4.93;3.60;;;;;;;22.20;78.65;93617.53;5068920;28;20110;-79
2023/08/12 07:23:23;;;;;;;3.72;2.47;;;;;;;22.28;75.96;93600.47;5069606;28;20126;-78
2023/08/12 07:25:50;;;;;;;4.28;2.90;;;;;;;22.61;75.41;93610.44;5067466;28;20053;-78
2023/08/12 07:28:17;;;;;;;3.28;2.35;;;;;;;22.75;74.64;93611.38;5068012;28;20052;-79
2023/08/12 07:30:43;;;;;;;4.07;2.70;;;;;;;23.04;74.97;93620.25;5069174;28;20110;-80
2023/08/12 07:33:10;;;;;;;2.78;2.40;;;;;;;23.17;72.15;93614.38;5068004;28;21063;-80
2023/08/12 07:35:37;;;;;;;2.63;2.17;;;;;;;23.33;69.73;93616.84;5066415;28;20102;-80
2023/08/12 07:38:04;;;;;;;2.42;1.80;;;;;;;23.24;67.01;93595.69;5066126;28;20048;-80
2023/08/12 07:40:35;;;;;;;2.13;1.90;;;;;;;23.46;68.30;93615.38;5067073;28;20553;-80
2023/08/12 07:43:05;;;;;;;2.78;2.33;;;;;;;23.38;67.79;93597.66;5059710;28;20044;-79
2023/08/12 07:45:31;;;;;;;4.72;2.80;;;;;;;23.73;70.55;93611.38;5065835;28;20045;-79
2023/08/12 07:47:58;;;;;;;2.95;2.13;;;;;;;24.02;69.23;93611.25;5068015;28;20056;-79
2023/08/12 07:50:25;;;;;;;3.08;1.95;;;;;;;24.22;67.37;93601.56;5064794;28;20052;-79
2023/08/12 07:52:51;;;;;;;2.08;1.88;;;;;;;24.34;68.07;93595.09;5064839;28;20056;-79
2023/08/12 07:55:19;;;;;;;3.22;2.15;;;;;;;24.67;66.82;93597.69;5065530;28;20494;-78
2023/08/12 07:57:47;;;;;;;5.05;2.63;;;;;;;24.79;66.32;93598.00;5063976;28;20121;-78
2023/08/12 08:00:14;;;;;;;3.03;1.88;;;;;;;24.94;61.23;93593.56;5066194;28;20049;-79
2023/08/12 08:02:42;;;;;;;2.58;1.88;;;;;;;25.08;62.26;93597.00;5064154;28;20560;-79
2023/08/12 08:05:09;;;;;;;2.88;2.03;;;;;;;25.24;62.61;93591.44;5063695;28;20048;-79
2023/08/12 08:07:35;;;;;;;2.30;1.73;;;;;;;25.49;62.41;93590.16;5063911;28;20593;-79
2023/08/12 08:10:02;;;;;;;3.20;2.38;;;;;;;25.67;63.48;93592.97;5063857;28;20048;-80
2023/08/12 08:12:29;;;;;;;3.60;2.30;;;;;;;25.69;60.00;93598.72;5063264;28;20055;-80
2023/08/12 08:14:57;;;;;;;2.83;2.15;;;;;;;25.40;59.25;93589.28;5061972;28;20878;-79
2023/08/12 08:17:24;;;;;;;2.10;1.67;;;;;;;24.91;60.07;93597.56;5063246;28;20448;-80
2023/08/12 08:19:51;;;;;;;2.67;1.90;;;;;;;24.86;59.46;93595.03;5063932;28;20170;-79
2023/08/12 08:22:18;;;;;;;2.75;2.13;;;;;;;25.01;59.14;93593.97;5062924;28;20506;-80
2023/08/12 08:24:44;;;;;;;3.70;1.80;;;;;;;24.53;59.64;93601.06;5064260;28;20123;-79
2023/08/12 08:27:11;;;;;;;3.67;2.30;;;;;;;24.38;59.95;93598.66;5066647;28;20090;-80
2023/08/12 08:29:38;;;;;;;2.53;2.13;;;;;;;24.54;58.84;93594.72;5063299;28;20056;-80
2023/08/12 08:32:07;;;;;;;3.97;2.28;;;;;;;25.04;61.17;93592.63;5064682;28;20629;-80
2023/08/12 08:34:33;;;;;;;2.40;1.90;;;;;;;24.77;56.56;93597.50;5064356;28;20040;-80
2023/08/12 08:37:00;;;;;;;5.22;2.00;;;;;;;24.88;57.21;93589.47;5063339;28;20541;-80
2023/08/12 08:39:29;;;;;;;3.15;2.65;;;;;;;24.08;58.26;93592.84;5062431;28;20102;-80
2023/08/12 08:41:59;;;;;;;3.28;2.03;;;;;;;24.15;61.74;93580.91;5061319;28;20502;-80
2023/08/12 08:44:30;;;;;;;3.03;2.10;;;;;;;23.80;61.30;93595.28;5064299;28;20048;-82
2023/08/12 08:46:58;;;;;;;2.83;2.58;;;;;;;23.14;60.99;93593.94;5065326;28;20044;-80
2023/08/12 08:49:27;;;;;;;2.65;2.30;;;;;;;23.37;64.84;93581.13;5065651;28;20049;-79
2023/08/12 08:51:54;;;;;;;2.50;2.28;;;;;;;23.64;61.77;93571.88;5067093;28;20905;-82
2023/08/12 08:54:22;;;;;;;2.60;2.35;;;;;;;23.92;61.45;93569.41;5065194;28;20523;-81
2023/08/12 08:56:50;;;;;;;3.22;2.20;;;;;;;23.58;60.88;93567.78;5060243;28;20110;-81
2023/08/12 08:59:17;;;;;;;3.10;2.10;;;;;;;23.30;61.77;93570.19;5064348;28;20568;-79
2023/08/12 09:01:46;;;;;;;2.70;2.17;;;;;;;23.93;62.21;93576.22;5066450;28;20896;-79
2023/08/12 09:04:16;;;;;;;3.75;2.10;;;;;;;23.70;60.81;93581.25;5064708;28;20088;-81
2023/08/12 09:06:45;;;;;;;2.85;2.20;;;;;;;23.62;60.03;93580.03;5065147;28;20055;-82
2023/08/12 09:09:17;;;;;;;3.08;2.35;;;;;;;23.62;62.05;93574.78;5064456;28;20067;-78
2023/08/12 09:11:45;;;;;;;3.38;2.70;;;;;;;23.68;62.13;93554.53;5062988;28;20052;-82
2023/08/12 09:14:12;;;;;;;3.03;2.33;;;;;;;23.89;60.82;93573.38;5063490;28;20545;-79
2023/08/12 09:16:38;;;;;;;2.20;1.73;;;;;;;23.74;59.36;93565.72;5065360;28;20040;-79
2023/08/12 09:19:08;;;;;;;2.63;2.10;;;;;;;23.76;60.53;93558.38;5064110;28;20098;-79
2023/08/12 09:21:35;;;;;;;2.80;2.15;;;;;;;23.90;58.92;93558.44;5064647;28;20516;-83
2023/08/12 09:24:05;;;;;;;5.07;2.30;;;;;;;23.72;59.27;93529.31;5065873;28;20398;-80
2023/08/12 09:26:32;;;;;;;2.60;2.05;;;;;;;24.13;59.10;93558.66;5061953;28;20048;-80
2023/08/12 09:28:59;;;;;;;5.13;2.10;;;;;;;24.20;56.75;93553.03;5063049;28;20085;-79
2023/08/12 09:31:28;;;;;;;2.72;1.70;;;;;;;24.09;55.67;93547.16;5065334;28;20040;-81
2023/08/12 09:33:59;;;;;;;2.55;1.75;;;;;;;24.38;55.91;93557.47;5064978;28;20514;-82
2023/08/12 09:36:28;;;;;;;2.97;2.00;;;;;;;24.24;56.98;93554.00;5064412;28;20103;-79
2023/08/12 09:38:57;;;;;;;2.78;1.90;;;;;;;24.72;57.39;93547.72;5064010;28;20456;-81
2023/08/12 09:41:26;;;;;;;3.03;1.92;;;;;;;24.90;54.93;93545.31;5063864;28;20049;-79
2023/08/12 09:43:53;;;;;;;2.80;1.80;;;;;;;25.34;56.92;93533.41;5064622;28;20052;-79
2023/08/12 09:46:23;;;;;;;2.45;1.98;;;;;;;25.29;53.17;93530.88;5063196;28;20049;-80
2023/08/12 09:48:50;;;;;;;2.83;2.05;;;;;;;25.40;55.77;93543.81;5065684;28;20150;-80
2023/08/12 09:51:18;;;;;;;1.90;1.60;;;;;;;25.75;53.75;93538.88;5064365;28;20097;-79
2023/08/12 09:53:44;;;;;;;2.88;1.60;;;;;;;25.80;51.47;93541.41;5065183;28;20494;-79
2023/08/12 09:56:13;;;;;;;1.85;1.27;;;;;;;25.74;52.65;93517.06;5060974;28;20498;-81
2023/08/12 09:58:43;;;;;;;1.98;1.60;;;;;;;25.23;50.72;93537.31;5064514;28;20106;-80
2023/08/12 10:01:13;;;;;;;1.90;1.35;;;;;;;25.27;52.62;93540.91;5064870;28;20059;-81
2023/08/12 10:03:42;;;;;;;2.45;1.60;;;;;;;24.89;51.27;93539.25;5064536;28;20066;-80
2023/08/12 10:06:09;;;;;;;3.47;2.08;;;;;;;25.18;53.52;93524.28;5064465;28;20052;-80
2023/08/12 10:08:36;;;;;;;3.00;2.15;;;;;;;26.00;55.13;93528.84;5060373;28;20053;-80
2023/08/12 10:11:04;;;;;;;3.97;2.25;;;;;;;26.54;51.67;93520.22;5063673;28;20084;-81
2023/08/12 10:13:31;;;;;;;3.15;1.65;;;;;;;26.66;48.63;93533.59;5061526;28;20056;-81
2023/08/12 10:15:59;;;;;;;2.72;2.00;;;;;;;26.70;50.60;93522.47;5063185;28;20040;-81
2023/08/12 10:18:29;;;;;;;2.03;1.33;;;;;;;27.14;46.60;93515.50;5063240;28;20055;-81
2023/08/12 10:20:58;;;;;;;3.47;1.60;;;;;;;27.62;47.74;93521.00;5062436;28;20498;-81
2023/08/12 10:23:26;;;;;;;2.13;1.40;;;;;;;27.97;44.00;93518.38;5064033;28;20080;-81
2023/08/12 10:25:55;;;;;;;2.22;1.63;;;;;;;27.37;43.43;93496.91;5065003;28;20098;-81
2023/08/12 10:28:23;;;;;;;2.00;1.80;;;;;;;27.92;43.38;93515.91;5064259;28;20048;-81
2023/08/12 10:30:50;;;;;;;2.30;1.63;;;;;;;28.22;43.66;93512.56;5063403;28;20037;-82
2023/08/12 10:33:19;;;;;;;2.30;1.40;;;;;;;27.77;42.20;93521.63;5064279;28;20060;-80
2023/08/12 10:35:47;;;;;;;1.90;1.60;;;;;;;27.35;44.58;93520.16;5064016;28;20049;-81
2023/08/12 10:38:17;;;;;;;2.10;1.40;;;;;;;27.14;46.60;93507.59;5057370;28;20122;-81
2023/08/12 10:40:44;;;;;;;2.40;1.55;;;;;;;27.72;46.25;93501.47;5059978;28;20063;-81
2023/08/12 10:43:12;;;;;;;3.00;1.30;;;;;;;27.74;42.65;93510.63;5059324;28;20055;-83
2023/08/12 10:45:44;;;;;;;1.95;1.30;;;;;;;27.94;45.02;93502.34;5060299;28;20049;-82
2023/08/12 10:48:20;;;;;;;2.33;1.45;;;;;;;27.77;42.34;93508.44;5058394;28;20635;-80
2023/08/12 10:50:49;;;;;;;1.80;1.33;;;;;;;27.83;43.38;93497.44;5059433;28;20141;-81
2023/08/12 10:53:24;;;;;;;2.10;1.50;;;;;;;27.59;42.26;93496.00;5060500;28;20635;-80
2023/08/12 10:55:52;;;;;;;1.80;1.27;;;;;;;28.08;44.13;93487.13;5059501;28;20048;-80
2023/08/12 10:58:26;;;;;;;2.10;1.20;;;;;;;28.03;40.01;93483.91;5059442;28;20526;-80
2023/08/12 11:00:55;;;;;;;1.92;1.42;;;;;;;27.57;41.29;93487.63;5060389;28;20167;-81
2023/08/12 11:03:23;;;;;;;3.03;1.60;;;;;;;26.48;44.54;93471.38;5059344;28;20190;-79
2023/08/12 11:05:50;;;;;;;1.60;1.10;;;;;;;27.18;42.56;93468.94;5060339;28;20044;-81
2023/08/12 11:08:18;;;;;;;1.90;1.27;;;;;;;27.41;43.09;93475.97;5060978;28;20059;-82
2023/08/12 11:10:45;;;;;;;1.90;1.35;;;;;;;27.23;42.21;93477.81;5063153;28;20067;-76
2023/08/12 11:13:11;;;;;;;1.70;1.25;;;;;;;27.07;42.30;93478.25;5062274;28;20052;-77
2023/08/12 11:15:42;;;;;;;2.30;1.90;;;;;;;26.73;44.08;93453.31;5063786;28;20044;-78